Cooperative Mariner — WDB9872 — position and weather

sailwx.info

Track history (hours):
 
Tides and Currents Weather Stations Pressure Air Temp Water Temp Dewpoint Dewpoint Depression Visibility Wind Speed Wind Dir Waves Ship Positions

Cooperative Mariner

Owner: American River Transportation Company, St Louis, MO. More information available from US FCC via Universal Licensing System and Coast Guard Vessel Documentation Center.

Last reported at 2018-Feb-20 01:29 UTC. Time now 2018-Feb-20 01:54 UTC.
Position N 39°09' W 090°37'.

Length 51 m; draft 2.7 m.

Type: Towing. MMSI: 366984270.

Date/timePositionNaut miles runAvg speedWind from/ knotsBaromVisibWave heightAir tempDewpointWater temp
2018-Feb-20 01:29N 39°09' W 090°37'2 4.0
2018-Feb-20 01:00N 39°07' W 090°36'2 4.0
2018-Feb-20 00:30N 39°05' W 090°36'2 3.5
2018-Feb-19 23:59N 39°04' W 090°35'2 3.1
2018-Feb-19 23:30N 39°02' W 090°35'2 4.3
2018-Feb-19 23:00N 39°00' W 090°34'2 4.4
2018-Feb-19 22:30N 38°58' W 090°33'2 3.8
2018-Feb-19 22:00N 38°57' W 090°31'2 4.3
2018-Feb-19 21:30N 38°58' W 090°28'2 4.4
2018-Feb-19 21:00N 38°58' W 090°25'2 4.4
2018-Feb-19 20:30N 38°57' W 090°23'2 4.5
2018-Feb-19 20:00N 38°56' W 090°20'3 5.5
2018-Feb-19 19:30N 38°55' W 090°17'3 5.4
2018-Feb-19 19:00N 38°55' W 090°13'3 5.8
2018-Feb-19 18:30N 38°53' W 090°10'1 2.4
2018-Feb-19 18:00N 38°52' W 090°09'0 0.3
2018-Feb-19 17:30N 38°52' W 090°09'0 0.0
2018-Feb-19 16:59N 38°52' W 090°09'0 0.2
2018-Feb-19 16:30N 38°52' W 090°09'0 0.7
2018-Feb-19 16:00N 38°52' W 090°09'0 0.1
2018-Feb-19 15:30N 38°52' W 090°08'0 0.0
2018-Feb-19 15:00N 38°52' W 090°08'0 0.0
2018-Feb-19 14:30N 38°52' W 090°08'0 0.0
2018-Feb-19 14:00N 38°52' W 090°08'0 0.0
2018-Feb-19 13:30N 38°52' W 090°08'0 0.0
2018-Feb-19 13:00N 38°52' W 090°08'0 0.0
2018-Feb-19 12:30N 38°52' W 090°08'0 0.0
2018-Feb-19 12:00N 38°52' W 090°08'0 0.0
2018-Feb-19 11:30N 38°52' W 090°08'0 0.0
2018-Feb-19 11:00N 38°52' W 090°08'0 0.0
2018-Feb-19 10:30N 38°52' W 090°08'0 0.0
2018-Feb-19 10:00N 38°52' W 090°08'0 0.0
2018-Feb-19 09:30N 38°52' W 090°08'2 3.7
2018-Feb-19 09:00N 38°51' W 090°06'3 5.2
2018-Feb-19 08:30N 38°48' W 090°07'3 5.4
2018-Feb-19 08:00N 38°46' W 090°08'3 5.0
2018-Feb-19 07:30N 38°43' W 090°10'2 2.3
2018-Feb-19 06:41N 38°42' W 090°11'0 1.7
2018-Feb-19 06:30N 38°42' W 090°11'2 4.5
2018-Feb-19 06:00N 38°39' W 090°11'1 1.0
2018-Feb-19 04:51N 38°38' W 090°11'1 1.9
2018-Feb-19 04:28N 38°37' W 090°11'2 0.1
2018-Feb-18 08:18N 38°36' W 090°12'0 0.5
2018-Feb-18 07:53N 38°36' W 090°12'0 0.0
2018-Feb-18 07:13N 38°36' W 090°12'0 2.2
2018-Feb-18 07:00N 38°36' W 090°11'2 3.3
2018-Feb-18 06:30N 38°38' W 090°11'3 6.5
2018-Feb-18 06:00N 38°41' W 090°11'1 2.0
2018-Feb-18 05:25N 38°42' W 090°11'0 1.0
2018-Feb-18 05:00N 38°43' W 090°11'1 1.7
2018-Feb-18 04:30N 38°43' W 090°10'1 2.2
2018-Feb-18 04:00N 38°44' W 090°09'0 1.0
2018-Feb-18 03:30N 38°45' W 090°09'1 2.0
2018-Feb-18 03:00N 38°46' W 090°08'1 2.9
2018-Feb-18 02:30N 38°47' W 090°08'2 4.2
2018-Feb-18 02:00N 38°49' W 090°07'2 4.6
2018-Feb-18 01:30N 38°51' W 090°07'2 2.7
2018-Feb-18 00:53N 38°52' W 090°09'0 0.5
2018-Feb-18 00:30N 38°52' W 090°09'0 0.5
2018-Feb-18 00:00N 38°52' W 090°09'0 0.0
2018-Feb-17 23:28N 38°52' W 090°09'0 0.2
2018-Feb-17 22:59N 38°52' W 090°09'0 0.2
2018-Feb-17 22:30N 38°52' W 090°09'0 0.6
2018-Feb-17 22:00N 38°52' W 090°09'0 0.2
2018-Feb-17 21:30N 38°52' W 090°09'0 0.0
2018-Feb-17 21:00N 38°52' W 090°09'0 0.9
2018-Feb-17 20:30N 38°53' W 090°10'3 5.4
2018-Feb-17 20:00N 38°54' W 090°13'1 2.1
2018-Feb-17 19:30N 38°55' W 090°13'0 0.0
2018-Feb-17 19:00N 38°55' W 090°13'0 0.0
2018-Feb-17 18:30N 38°55' W 090°13'0 0.0
2018-Feb-17 18:00N 38°55' W 090°13'0 0.0
2018-Feb-17 17:30N 38°55' W 090°13'0 0.0
2018-Feb-17 17:00N 38°55' W 090°13'1 1.1
2018-Feb-17 16:30N 38°55' W 090°14'2 3.6
2018-Feb-17 16:00N 38°55' W 090°16'2 4.7
2018-Feb-17 15:30N 38°56' W 090°19'2 4.8
2018-Feb-17 15:00N 38°57' W 090°22'2 4.7
2018-Feb-17 14:30N 38°58' W 090°25'2 4.7
2018-Feb-17 14:00N 38°58' W 090°28'2 4.1
2018-Feb-17 13:30N 38°58' W 090°30'2 3.4
2018-Feb-17 13:00N 38°58' W 090°32'2 4.0
2018-Feb-17 12:30N 38°59' W 090°34'2 4.1
2018-Feb-17 12:00N 39°01' W 090°34'2 3.7
2018-Feb-17 11:30N 39°03' W 090°35'2 3.3
2018-Feb-17 11:00N 39°05' W 090°35'2 4.2
2018-Feb-17 10:30N 39°07' W 090°36'2 4.0
2018-Feb-17 10:00N 39°09' W 090°37'2 4.0
2018-Feb-17 09:30N 39°11' W 090°36'2 3.6
2018-Feb-17 09:00N 39°12' W 090°36'2 3.8
2018-Feb-17 08:28N 39°14' W 090°36'  
2018-Feb-13 13:11N 39°17' W 090°36'1 3.7
2018-Feb-13 12:59N 39°16' W 090°36'4 2.7
2018-Feb-13 11:31N 39°13' W 090°36'0 3.6
2018-Feb-13 11:30N 39°12' W 090°36'2 3.7
2018-Feb-13 11:00N 39°11' W 090°36'2 4.1
2018-Feb-13 10:30N 39°09' W 090°37'2 3.6
2018-Feb-13 10:00N 39°07' W 090°36'2 4.0
2018-Feb-13 09:30N 39°05' W 090°36'2 3.6
2018-Feb-13 09:00N 39°03' W 090°35'2 3.9
2018-Feb-13 08:30N 39°02' W 090°34'2 4.1
2018-Feb-13 08:00N 38°59' W 090°34'2 4.2
2018-Feb-13 07:30N 38°58' W 090°32'2 3.4
2018-Feb-13 07:00N 38°58' W 090°30'2 4.1
2018-Feb-13 06:30N 38°58' W 090°28'1 2.7
2018-Feb-13 06:00N 38°58' W 090°26'2 4.4
2018-Feb-13 05:30N 38°58' W 090°23'2 4.0
2018-Feb-13 05:00N 38°57' W 090°21'2 4.7
2018-Feb-13 04:30N 38°55' W 090°19'2 4.0
2018-Feb-13 04:00N 38°55' W 090°16'1 2.5
2018-Feb-13 03:30N 38°55' W 090°14'0 0.2
2018-Feb-13 03:00N 38°55' W 090°14'1 2.3
2018-Feb-13 02:30N 38°55' W 090°13'2 4.4
2018-Feb-13 02:00N 38°53' W 090°11'2 3.8
2018-Feb-13 01:30N 38°52' W 090°09'0 0.1
2018-Feb-13 01:00N 38°52' W 090°09'0 0.2
2018-Feb-13 00:30N 38°52' W 090°09'0 0.1
2018-Feb-13 00:00N 38°52' W 090°09'0 1.0
2018-Feb-12 23:30N 38°52' W 090°08'1 1.6
2018-Feb-12 22:59N 38°51' W 090°08'0 0.0
2018-Feb-12 22:28N 38°51' W 090°08'1 2.8
2018-Feb-12 22:00N 38°50' W 090°06'6 5.0
2018-Feb-12 20:53N 38°45' W 090°09'2 4.1
2018-Feb-12 20:30N 38°44' W 090°10'2 2.0
2018-Feb-12 19:24N 38°42' W 090°11'1 2.1
2018-Feb-12 19:00N 38°41' W 090°11'2 4.6
2018-Feb-12 18:30N 38°39' W 090°11'2 4.4
2018-Feb-12 17:57N 38°36' W 090°11'0 0.1
2018-Feb-12 12:02N 38°36' W 090°12'0 0.1
2018-Feb-12 10:55N 38°36' W 090°12'1 1.3
2018-Feb-12 10:27N 38°37' W 090°11'3 6.2
2018-Feb-12 10:00N 38°39' W 090°11'2 4.5
2018-Feb-12 09:30N 38°42' W 090°11'0 1.0
2018-Feb-12 09:00N 38°42' W 090°11'0 0.9
2018-Feb-12 08:30N 38°43' W 090°11'1 2.4
2018-Feb-12 08:00N 38°44' W 090°10'2 3.2
2018-Feb-12 07:30N 38°45' W 090°09'1 2.6
2018-Feb-12 07:00N 38°46' W 090°08'2 3.2
2018-Feb-12 06:30N 38°48' W 090°07'2 4.9
2018-Feb-12 06:00N 38°50' W 090°07'2 4.1
2018-Feb-12 05:30N 38°52' W 090°08'1 1.6
2018-Feb-12 05:00N 38°52' W 090°09'0 0.0
2018-Feb-12 04:30N 38°52' W 090°09'0 0.0
2018-Feb-12 04:00N 38°52' W 090°09'0 0.3
2018-Feb-12 03:30N 38°52' W 090°09'0 0.2
2018-Feb-12 03:00N 38°52' W 090°09'0 0.0
2018-Feb-12 02:30N 38°52' W 090°09'0 0.2
2018-Feb-12 02:00N 38°52' W 090°09'1 2.5
2018-Feb-12 01:30N 38°53' W 090°11'2 4.2
2018-Feb-12 01:00N 38°54' W 090°13'1 1.4
2018-Feb-12 00:30N 38°55' W 090°13'0 0.0
2018-Feb-12 00:00N 38°55' W 090°13'0 0.0
2018-Feb-11 23:30N 38°55' W 090°13'0 0.0
2018-Feb-11 23:00N 38°55' W 090°13'0 0.0
2018-Feb-11 22:30N 38°55' W 090°13'0 0.0
2018-Feb-11 22:00N 38°55' W 090°13'0 0.0
2018-Feb-11 21:30N 38°55' W 090°13'0 0.0
2018-Feb-11 21:00N 38°55' W 090°13'0 0.0
2018-Feb-11 20:30N 38°55' W 090°13'0 0.0
2018-Feb-11 20:00N 38°55' W 090°13'0 0.0
2018-Feb-11 19:30N 38°55' W 090°13'0 0.0
2018-Feb-11 19:00N 38°55' W 090°13'0 0.0
2018-Feb-11 18:30N 38°55' W 090°13'0 0.0
2018-Feb-11 18:00N 38°55' W 090°13'0 0.0
2018-Feb-11 17:30N 38°55' W 090°13'0 0.0
2018-Feb-11 17:00N 38°55' W 090°13'0 0.0
2018-Feb-11 16:30N 38°55' W 090°13'0 0.0
2018-Feb-11 16:00N 38°55' W 090°13'0 0.0
2018-Feb-11 15:30N 38°55' W 090°13'0 0.1
2018-Feb-11 15:00N 38°55' W 090°14'2 3.1
2018-Feb-11 14:30N 38°55' W 090°15'2 4.0
2018-Feb-11 14:00N 38°55' W 090°18'2 4.5
2018-Feb-11 13:30N 38°56' W 090°21'2 4.8
2018-Feb-11 13:00N 38°58' W 090°23'2 4.8
2018-Feb-11 12:30N 38°58' W 090°26'2 4.3
2018-Feb-11 12:00N 38°58' W 090°29'2 3.6
2018-Feb-11 11:30N 38°57' W 090°31'2 3.8
2018-Feb-11 11:00N 38°58' W 090°33'2 4.0
2018-Feb-11 10:30N 39°00' W 090°34'2 4.0
2018-Feb-11 10:00N 39°02' W 090°35'2 3.1
2018-Feb-11 09:30N 39°04' W 090°35'2 3.9
2018-Feb-11 09:00N 39°05' W 090°36'2 4.2
2018-Feb-11 08:30N 39°07' W 090°36'2 4.2
2018-Feb-11 08:00N 39°10' W 090°37'2 3.9
2018-Feb-11 07:30N 39°11' W 090°36'4 3.8
2018-Feb-11 06:31N 39°15' W 090°36'1 4.3
2018-Feb-11 06:21N 39°16' W 090°37'  
Track history (hours):
 
Tides and Currents Weather Stations Pressure Air Temp Water Temp Dewpoint Dewpoint Depression Visibility Wind Speed Wind Dir Waves Ship Positions

Cooperative Mariner

Owner: American River Transportation Company, St Louis, MO. More information available from US FCC via Universal Licensing System and Coast Guard Vessel Documentation Center.

Last reported at 2018-Feb-20 01:29 UTC. Time now 2018-Feb-20 01:54 UTC.
Position N 39°09' W 090°37'.

Length 51 m; draft 2.7 m.

Type: Towing. MMSI: 366984270.

Date/timePositionNaut miles runAvg speedWind from/ knotsBaromVisibWave heightAir tempDewpointWater temp
2018-Feb-20 01:29N 39°09' W 090°37'2 4.0
2018-Feb-20 01:00N 39°07' W 090°36'2 4.0
2018-Feb-20 00:30N 39°05' W 090°36'2 3.5
2018-Feb-19 23:59N 39°04' W 090°35'2 3.1
2018-Feb-19 23:30N 39°02' W 090°35'2 4.3
2018-Feb-19 23:00N 39°00' W 090°34'2 4.4
2018-Feb-19 22:30N 38°58' W 090°33'2 3.8
2018-Feb-19 22:00N 38°57' W 090°31'2 4.3
2018-Feb-19 21:30N 38°58' W 090°28'2 4.4
2018-Feb-19 21:00N 38°58' W 090°25'2 4.4
2018-Feb-19 20:30N 38°57' W 090°23'2 4.5
2018-Feb-19 20:00N 38°56' W 090°20'3 5.5
2018-Feb-19 19:30N 38°55' W 090°17'3 5.4
2018-Feb-19 19:00N 38°55' W 090°13'3 5.8
2018-Feb-19 18:30N 38°53' W 090°10'1 2.4
2018-Feb-19 18:00N 38°52' W 090°09'0 0.3
2018-Feb-19 17:30N 38°52' W 090°09'0 0.0
2018-Feb-19 16:59N 38°52' W 090°09'0 0.2
2018-Feb-19 16:30N 38°52' W 090°09'0 0.7
2018-Feb-19 16:00N 38°52' W 090°09'0 0.1
2018-Feb-19 15:30N 38°52' W 090°08'0 0.0
2018-Feb-19 15:00N 38°52' W 090°08'0 0.0
2018-Feb-19 14:30N 38°52' W 090°08'0 0.0
2018-Feb-19 14:00N 38°52' W 090°08'0 0.0
2018-Feb-19 13:30N 38°52' W 090°08'0 0.0
2018-Feb-19 13:00N 38°52' W 090°08'0 0.0
2018-Feb-19 12:30N 38°52' W 090°08'0 0.0
2018-Feb-19 12:00N 38°52' W 090°08'0 0.0
2018-Feb-19 11:30N 38°52' W 090°08'0 0.0
2018-Feb-19 11:00N 38°52' W 090°08'0 0.0
2018-Feb-19 10:30N 38°52' W 090°08'0 0.0
2018-Feb-19 10:00N 38°52' W 090°08'0 0.0
2018-Feb-19 09:30N 38°52' W 090°08'2 3.7
2018-Feb-19 09:00N 38°51' W 090°06'3 5.2
2018-Feb-19 08:30N 38°48' W 090°07'3 5.4
2018-Feb-19 08:00N 38°46' W 090°08'3 5.0
2018-Feb-19 07:30N 38°43' W 090°10'2 2.3
2018-Feb-19 06:41N 38°42' W 090°11'0 1.7
2018-Feb-19 06:30N 38°42' W 090°11'2 4.5
2018-Feb-19 06:00N 38°39' W 090°11'1 1.0
2018-Feb-19 04:51N 38°38' W 090°11'1 1.9
2018-Feb-19 04:28N 38°37' W 090°11'2 0.1
2018-Feb-18 08:18N 38°36' W 090°12'0 0.5
2018-Feb-18 07:53N 38°36' W 090°12'0 0.0
2018-Feb-18 07:13N 38°36' W 090°12'0 2.2
2018-Feb-18 07:00N 38°36' W 090°11'2 3.3
2018-Feb-18 06:30N 38°38' W 090°11'3 6.5
2018-Feb-18 06:00N 38°41' W 090°11'1 2.0
2018-Feb-18 05:25N 38°42' W 090°11'0 1.0
2018-Feb-18 05:00N 38°43' W 090°11'1 1.7
2018-Feb-18 04:30N 38°43' W 090°10'1 2.2
2018-Feb-18 04:00N 38°44' W 090°09'0 1.0
2018-Feb-18 03:30N 38°45' W 090°09'1 2.0
2018-Feb-18 03:00N 38°46' W 090°08'1 2.9
2018-Feb-18 02:30N 38°47' W 090°08'2 4.2
2018-Feb-18 02:00N 38°49' W 090°07'2 4.6
2018-Feb-18 01:30N 38°51' W 090°07'2 2.7
2018-Feb-18 00:53N 38°52' W 090°09'0 0.5
2018-Feb-18 00:30N 38°52' W 090°09'0 0.5
2018-Feb-18 00:00N 38°52' W 090°09'0 0.0
2018-Feb-17 23:28N 38°52' W 090°09'0 0.2
2018-Feb-17 22:59N 38°52' W 090°09'0 0.2
2018-Feb-17 22:30N 38°52' W 090°09'0 0.6
2018-Feb-17 22:00N 38°52' W 090°09'0 0.2
2018-Feb-17 21:30N 38°52' W 090°09'0 0.0
2018-Feb-17 21:00N 38°52' W 090°09'0 0.9
2018-Feb-17 20:30N 38°53' W 090°10'3 5.4
2018-Feb-17 20:00N 38°54' W 090°13'1 2.1
2018-Feb-17 19:30N 38°55' W 090°13'0 0.0
2018-Feb-17 19:00N 38°55' W 090°13'0 0.0
2018-Feb-17 18:30N 38°55' W 090°13'0 0.0
2018-Feb-17 18:00N 38°55' W 090°13'0 0.0
2018-Feb-17 17:30N 38°55' W 090°13'0 0.0
2018-Feb-17 17:00N 38°55' W 090°13'1 1.1
2018-Feb-17 16:30N 38°55' W 090°14'2 3.6
2018-Feb-17 16:00N 38°55' W 090°16'2 4.7
2018-Feb-17 15:30N 38°56' W 090°19'2 4.8
2018-Feb-17 15:00N 38°57' W 090°22'2 4.7
2018-Feb-17 14:30N 38°58' W 090°25'2 4.7
2018-Feb-17 14:00N 38°58' W 090°28'2 4.1
2018-Feb-17 13:30N 38°58' W 090°30'2 3.4
2018-Feb-17 13:00N 38°58' W 090°32'2 4.0
2018-Feb-17 12:30N 38°59' W 090°34'2 4.1
2018-Feb-17 12:00N 39°01' W 090°34'2 3.7
2018-Feb-17 11:30N 39°03' W 090°35'2 3.3
2018-Feb-17 11:00N 39°05' W 090°35'2 4.2
2018-Feb-17 10:30N 39°07' W 090°36'2 4.0
2018-Feb-17 10:00N 39°09' W 090°37'2 4.0
2018-Feb-17 09:30N 39°11' W 090°36'2 3.6
2018-Feb-17 09:00N 39°12' W 090°36'2 3.8
2018-Feb-17 08:28N 39°14' W 090°36'  
2018-Feb-13 13:11N 39°17' W 090°36'1 3.7
2018-Feb-13 12:59N 39°16' W 090°36'4 2.7
2018-Feb-13 11:31N 39°13' W 090°36'0 3.6
2018-Feb-13 11:30N 39°12' W 090°36'2 3.7
2018-Feb-13 11:00N 39°11' W 090°36'2 4.1
2018-Feb-13 10:30N 39°09' W 090°37'2 3.6
2018-Feb-13 10:00N 39°07' W 090°36'2 4.0
2018-Feb-13 09:30N 39°05' W 090°36'2 3.6
2018-Feb-13 09:00N 39°03' W 090°35'2 3.9
2018-Feb-13 08:30N 39°02' W 090°34'2 4.1
2018-Feb-13 08:00N 38°59' W 090°34'2 4.2
2018-Feb-13 07:30N 38°58' W 090°32'2 3.4
2018-Feb-13 07:00N 38°58' W 090°30'2 4.1
2018-Feb-13 06:30N 38°58' W 090°28'1 2.7
2018-Feb-13 06:00N 38°58' W 090°26'2 4.4
2018-Feb-13 05:30N 38°58' W 090°23'2 4.0
2018-Feb-13 05:00N 38°57' W 090°21'2 4.7
2018-Feb-13 04:30N 38°55' W 090°19'2 4.0
2018-Feb-13 04:00N 38°55' W 090°16'1 2.5
2018-Feb-13 03:30N 38°55' W 090°14'0 0.2
2018-Feb-13 03:00N 38°55' W 090°14'1 2.3
2018-Feb-13 02:30N 38°55' W 090°13'2 4.4
2018-Feb-13 02:00N 38°53' W 090°11'2 3.8
2018-Feb-13 01:30N 38°52' W 090°09'0 0.1
2018-Feb-13 01:00N 38°52' W 090°09'0 0.2
2018-Feb-13 00:30N 38°52' W 090°09'0 0.1
2018-Feb-13 00:00N 38°52' W 090°09'0 1.0
2018-Feb-12 23:30N 38°52' W 090°08'1 1.6
2018-Feb-12 22:59N 38°51' W 090°08'0 0.0
2018-Feb-12 22:28N 38°51' W 090°08'1 2.8
2018-Feb-12 22:00N 38°50' W 090°06'6 5.0
2018-Feb-12 20:53N 38°45' W 090°09'2 4.1
2018-Feb-12 20:30N 38°44' W 090°10'2 2.0
2018-Feb-12 19:24N 38°42' W 090°11'1 2.1
2018-Feb-12 19:00N 38°41' W 090°11'2 4.6
2018-Feb-12 18:30N 38°39' W 090°11'2 4.4
2018-Feb-12 17:57N 38°36' W 090°11'0 0.1
2018-Feb-12 12:02N 38°36' W 090°12'0 0.1
2018-Feb-12 10:55N 38°36' W 090°12'1 1.3
2018-Feb-12 10:27N 38°37' W 090°11'3 6.2
2018-Feb-12 10:00N 38°39' W 090°11'2 4.5
2018-Feb-12 09:30N 38°42' W 090°11'0 1.0
2018-Feb-12 09:00N 38°42' W 090°11'0 0.9
2018-Feb-12 08:30N 38°43' W 090°11'1 2.4
2018-Feb-12 08:00N 38°44' W 090°10'2 3.2
2018-Feb-12 07:30N 38°45' W 090°09'1 2.6
2018-Feb-12 07:00N 38°46' W 090°08'2 3.2
2018-Feb-12 06:30N 38°48' W 090°07'2 4.9
2018-Feb-12 06:00N 38°50' W 090°07'2 4.1
2018-Feb-12 05:30N 38°52' W 090°08'1 1.6
2018-Feb-12 05:00N 38°52' W 090°09'0 0.0
2018-Feb-12 04:30N 38°52' W 090°09'0 0.0
2018-Feb-12 04:00N 38°52' W 090°09'0 0.3
2018-Feb-12 03:30N 38°52' W 090°09'0 0.2
2018-Feb-12 03:00N 38°52' W 090°09'0 0.0
2018-Feb-12 02:30N 38°52' W 090°09'0 0.2
2018-Feb-12 02:00N 38°52' W 090°09'1 2.5
2018-Feb-12 01:30N 38°53' W 090°11'2 4.2
2018-Feb-12 01:00N 38°54' W 090°13'1 1.4
2018-Feb-12 00:30N 38°55' W 090°13'0 0.0
2018-Feb-12 00:00N 38°55' W 090°13'0 0.0
2018-Feb-11 23:30N 38°55' W 090°13'0 0.0
2018-Feb-11 23:00N 38°55' W 090°13'0 0.0
2018-Feb-11 22:30N 38°55' W 090°13'0 0.0
2018-Feb-11 22:00N 38°55' W 090°13'0 0.0
2018-Feb-11 21:30N 38°55' W 090°13'0 0.0
2018-Feb-11 21:00N 38°55' W 090°13'0 0.0
2018-Feb-11 20:30N 38°55' W 090°13'0 0.0
2018-Feb-11 20:00N 38°55' W 090°13'0 0.0
2018-Feb-11 19:30N 38°55' W 090°13'0 0.0
2018-Feb-11 19:00N 38°55' W 090°13'0 0.0
2018-Feb-11 18:30N 38°55' W 090°13'0 0.0
2018-Feb-11 18:00N 38°55' W 090°13'0 0.0
2018-Feb-11 17:30N 38°55' W 090°13'0 0.0
2018-Feb-11 17:00N 38°55' W 090°13'0 0.0
2018-Feb-11 16:30N 38°55' W 090°13'0 0.0
2018-Feb-11 16:00N 38°55' W 090°13'0 0.0
2018-Feb-11 15:30N 38°55' W 090°13'0 0.1
2018-Feb-11 15:00N 38°55' W 090°14'2 3.1
2018-Feb-11 14:30N 38°55' W 090°15'2 4.0
2018-Feb-11 14:00N 38°55' W 090°18'2 4.5
2018-Feb-11 13:30N 38°56' W 090°21'2 4.8
2018-Feb-11 13:00N 38°58' W 090°23'2 4.8
2018-Feb-11 12:30N 38°58' W 090°26'2 4.3
2018-Feb-11 12:00N 38°58' W 090°29'2 3.6
2018-Feb-11 11:30N 38°57' W 090°31'2 3.8
2018-Feb-11 11:00N 38°58' W 090°33'2 4.0
2018-Feb-11 10:30N 39°00' W 090°34'2 4.0
2018-Feb-11 10:00N 39°02' W 090°35'2 3.1
2018-Feb-11 09:30N 39°04' W 090°35'2 3.9
2018-Feb-11 09:00N 39°05' W 090°36'2 4.2
2018-Feb-11 08:30N 39°07' W 090°36'2 4.2
2018-Feb-11 08:00N 39°10' W 090°37'2 3.9
2018-Feb-11 07:30N 39°11' W 090°36'4 3.8
2018-Feb-11 06:31N 39°15' W 090°36'1 4.3
2018-Feb-11 06:21N 39°16' W 090°37'  

Dump ship's entire track history